Time;durP1;ratioP1;P1;durP2;ratioP2;P2;SDS_P1;SDS_P2;PMS_P1;PMS_P2;Temp;Humidity;BMP_temperature;BMP_pressure;BME280_temperature;BME280_humidity;BME280_pressure;Samples;Min_cycle;Max_cycle;Signal;HPM_P1;HPM_P2
2021/04/05 00:01:38;;;;;;;1999.90;999.90;;;18.30;97.80;;;;;;5075564;28;20204;-42
2021/04/05 00:04:06;;;;;;;1999.90;999.90;;;18.20;97.90;;;;;;5075549;28;20170;-43
2021/04/05 00:06:33;;;;;;;1999.90;999.90;;;18.20;97.90;;;;;;5075596;28;20172;-42
2021/04/05 00:08:59;;;;;;;1999.90;999.90;;;18.10;98.00;;;;;;5075502;28;20180;-41
2021/04/05 00:11:26;;;;;;;1999.90;999.90;;;18.10;98.20;;;;;;5075540;28;20195;-33
2021/04/05 00:13:53;;;;;;;1999.90;999.90;;;18.10;98.40;;;;;;5074937;28;20169;-42
2021/04/05 00:16:21;;;;;;;1999.90;999.90;;;18.10;98.40;;;;;;5075282;28;20183;-42
2021/04/05 00:18:48;;;;;;;1999.90;999.90;;;18.10;98.50;;;;;;5075294;28;20199;-42
2021/04/05 00:21:21;;;;;;;1999.90;999.90;;;18.10;98.50;;;;;;5075196;28;20224;-42
2021/04/05 00:23:49;;;;;;;1999.90;999.90;;;18.10;98.40;;;;;;5075128;28;20190;-31
2021/04/05 00:26:16;;;;;;;1999.90;999.90;;;18.10;98.50;;;;;;5075173;28;20168;-34
2021/04/05 00:28:43;;;;;;;1999.90;999.90;;;18.10;98.40;;;;;;5075071;28;20200;-33
2021/04/05 00:31:10;;;;;;;1999.90;999.90;;;18.20;98.20;;;;;;5075034;28;20179;-41
2021/04/05 00:33:37;;;;;;;1999.90;999.90;;;18.20;98.10;;;;;;5074954;28;20691;-40
2021/04/05 00:36:04;;;;;;;1999.90;999.90;;;18.20;98.20;;;;;;5074989;28;20171;-40
2021/04/05 00:38:31;;;;;;;1999.90;999.90;;;18.10;98.20;;;;;;5074946;28;20176;-43
2021/04/05 00:40:58;;;;;;;1999.90;999.90;;;18.10;98.30;;;;;;5074900;28;20214;-42
2021/04/05 00:43:25;;;;;;;1999.90;999.90;;;18.00;98.40;;;;;;5074838;28;20222;-42
2021/04/05 00:45:52;;;;;;;1999.90;999.90;;;18.00;98.40;;;;;;5074702;28;20176;-42
2021/04/05 00:48:19;;;;;;;1999.90;999.90;;;17.90;98.40;;;;;;5074757;28;20172;-42
2021/04/05 00:50:52;;;;;;;1999.90;999.90;;;17.90;98.60;;;;;;5074758;28;20247;-42
2021/04/05 00:53:24;;;;;;;1999.90;999.90;;;17.90;98.70;;;;;;5074449;28;20358;-42
2021/04/05 00:55:51;;;;;;;1999.90;999.90;;;17.80;98.70;;;;;;5074630;28;20160;-32
2021/04/05 00:58:19;;;;;;;1999.90;999.90;;;17.80;98.70;;;;;;5074462;28;20578;-41
2021/04/05 01:00:50;;;;;;;1999.90;999.90;;;17.80;98.60;;;;;;5074488;28;20164;-41
2021/04/05 01:03:20;;;;;;;1999.90;999.90;;;17.80;98.80;;;;;;5074277;28;20211;-41
2021/04/05 01:05:49;;;;;;;1999.90;999.90;;;17.70;98.90;;;;;;5074395;28;20239;-41
2021/04/05 01:08:16;;;;;;;1999.90;999.90;;;17.70;99.00;;;;;;5074307;28;20168;-32
2021/04/05 01:10:44;;;;;;;1999.90;999.90;;;17.70;99.10;;;;;;5074316;28;20161;-42
2021/04/05 01:13:12;;;;;;;1999.90;999.90;;;17.70;99.30;;;;;;5074206;28;20160;-45
2021/04/05 01:15:39;;;;;;;1999.90;999.90;;;17.80;99.10;;;;;;5074204;28;20164;-42
2021/04/05 01:18:06;;;;;;;1999.90;999.90;;;17.80;99.10;;;;;;5074140;28;20161;-42
2021/04/05 01:20:34;;;;;;;1999.90;999.90;;;17.90;98.80;;;;;;5074169;28;20592;-42
2021/04/05 01:23:02;;;;;;;1999.90;999.90;;;17.90;98.70;;;;;;5073985;28;20208;-33
2021/04/05 01:25:29;;;;;;;1999.90;999.90;;;17.90;98.60;;;;;;5073165;28;20192;-43
2021/04/05 01:27:56;;;;;;;1999.90;999.90;;;17.80;98.70;;;;;;5073894;28;20218;-43
2021/04/05 01:30:35;;;;;;;1999.90;999.90;;;17.80;98.60;;;;;;5073940;28;20164;-43
2021/04/05 01:33:07;;;;;;;1999.90;999.90;;;17.80;98.60;;;;;;5074027;28;20186;-42
2021/04/05 01:35:39;;;;;;;1999.90;999.90;;;17.70;98.80;;;;;;5073896;28;20218;-43
2021/04/05 01:38:06;;;;;;;1999.90;999.90;;;17.70;98.90;;;;;;5073777;28;20524;-42
2021/04/05 01:40:39;;;;;;;1999.90;999.90;;;17.70;98.80;;;;;;5073941;28;20251;-42
2021/04/05 01:43:07;;;;;;;1999.90;999.90;;;17.80;98.80;;;;;;5073739;28;20199;-43
2021/04/05 01:45:34;;;;;;;1999.90;999.90;;;17.70;98.80;;;;;;5074116;28;20565;-43
2021/04/05 01:48:01;;;;;;;1999.90;999.90;;;17.70;99.00;;;;;;5073659;28;20169;-42
2021/04/05 01:50:28;;;;;;;1999.90;999.90;;;17.70;99.10;;;;;;5073476;28;20252;-43
2021/04/05 01:52:55;;;;;;;1999.90;999.90;;;17.70;99.20;;;;;;5073320;28;20265;-43
2021/04/05 01:55:22;;;;;;;1999.90;999.90;;;17.60;99.30;;;;;;5073507;28;20226;-34
2021/04/05 01:57:50;;;;;;;1999.90;999.90;;;17.60;99.50;;;;;;5073445;28;20172;-32
2021/04/05 02:00:24;;;;;;;1999.90;999.90;;;17.60;99.70;;;;;;5073290;28;20168;-43
2021/04/05 02:02:51;;;;;;;1999.90;999.90;;;17.60;99.50;;;;;;5073298;28;20346;-42
2021/04/05 02:05:20;;;;;;;1999.90;999.90;;;17.60;99.60;;;;;;5073267;28;20160;-32
2021/04/05 02:07:47;;;;;;;1999.90;999.90;;;17.60;99.60;;;;;;5073236;28;20221;-43
2021/04/05 02:10:23;;;;;;;1999.90;999.90;;;17.60;99.60;;;;;;5073135;28;20172;-42
2021/04/05 02:12:51;;;;;;;1999.90;999.90;;;17.60;99.50;;;;;;5073216;28;20206;-42
2021/04/05 02:15:18;;;;;;;1999.90;999.90;;;17.50;99.70;;;;;;5073110;28;20179;-41
2021/04/05 02:17:46;;;;;;;1999.90;999.90;;;17.50;99.80;;;;;;5073228;28;20176;-42
2021/04/05 02:20:15;;;;;;;1999.90;999.90;;;17.40;99.80;;;;;;5073108;28;20200;-42
2021/04/05 02:22:50;;;;;;;1999.90;999.90;;;17.40;99.90;;;;;;5073028;28;20228;-34
2021/04/05 02:25:19;;;;;;;1999.90;999.90;;;17.40;99.90;;;;;;5073005;28;20164;-35
2021/04/05 02:27:52;;;;;;;1999.90;999.90;;;17.30;99.90;;;;;;5073025;28;20263;-32
2021/04/05 02:30:25;;;;;;;1999.90;999.90;;;17.30;99.90;;;;;;5072984;28;20195;-41
2021/04/05 02:33:02;;;;;;;1999.90;999.90;;;17.30;99.90;;;;;;5072992;28;20240;-42
2021/04/05 02:35:31;;;;;;;1999.90;999.90;;;17.20;99.90;;;;;;5072980;28;20524;-32
2021/04/05 02:38:03;;;;;;;1999.90;999.90;;;17.20;99.90;;;;;;5072682;28;20647;-42
2021/04/05 02:40:31;;;;;;;1999.90;999.90;;;17.30;99.90;;;;;;5072973;28;20483;-42
2021/04/05 02:42:58;;;;;;;1999.90;999.90;;;17.30;99.90;;;;;;5072710;28;20267;-42
2021/04/05 02:45:27;;;;;;;1999.90;999.90;;;17.20;99.90;;;;;;5072865;28;20196;-43
2021/04/05 02:47:56;;;;;;;1999.90;999.90;;;17.20;99.90;;;;;;5072754;28;20631;-42
2021/04/05 02:50:26;;;;;;;1999.90;999.90;;;17.20;99.90;;;;;;5072818;28;20188;-42
2021/04/05 02:52:54;;;;;;;1999.90;999.90;;;17.20;99.90;;;;;;5072384;28;20227;-42
2021/04/05 02:55:23;;;;;;;1999.90;999.90;;;17.20;99.90;;;;;;5072763;28;20559;-42
2021/04/05 02:57:50;;;;;;;1999.90;999.90;;;17.20;99.90;;;;;;5072683;28;20164;-43
2021/04/05 03:00:20;;;;;;;1999.90;999.90;;;17.10;99.90;;;;;;5072696;28;20187;-42
2021/04/05 03:02:48;;;;;;;1999.90;999.90;;;17.10;99.90;;;;;;5072671;28;20192;-42
2021/04/05 03:05:22;;;;;;;1999.90;999.90;;;17.10;99.90;;;;;;5071441;28;20167;-42
2021/04/05 03:07:53;;;;;;;1999.90;999.90;;;17.00;99.90;;;;;;5072676;28;20612;-42
2021/04/05 03:10:24;;;;;;;1999.90;999.90;;;17.10;99.90;;;;;;5072800;28;20164;-43
2021/04/05 03:12:55;;;;;;;1999.90;999.90;;;17.00;99.90;;;;;;5072604;28;20153;-43
2021/04/05 03:15:24;;;;;;;1999.90;999.90;;;16.90;99.90;;;;;;5072566;28;20156;-40
2021/04/05 03:17:58;;;;;;;1999.90;999.90;;;16.80;99.90;;;;;;5072515;28;20176;-42
2021/04/05 03:20:29;;;;;;;1999.90;999.90;;;16.90;99.90;;;;;;5072486;28;20167;-42
2021/04/05 03:22:57;;;;;;;1999.90;999.90;;;16.90;99.90;;;;;;5071179;28;20197;-42
2021/04/05 03:25:24;;;;;;;1999.90;999.90;;;16.80;99.90;;;;;;5072410;28;20694;-43
2021/04/05 03:27:52;;;;;;;1999.90;999.90;;;16.90;99.90;;;;;;5072551;28;20169;-42
2021/04/05 03:30:32;;;;;;;1999.90;999.90;;;16.90;99.90;;;;;;5072315;28;20230;-42
2021/04/05 03:33:09;;;;;;;1999.90;999.90;;;16.90;99.90;;;;;;5072327;28;20161;-32
2021/04/05 03:35:40;;;;;;;1999.90;999.90;;;16.80;99.90;;;;;;5072367;28;20243;-43
2021/04/05 03:38:10;;;;;;;1999.90;999.90;;;16.80;99.90;;;;;;5072335;28;20160;-44
2021/04/05 03:40:40;;;;;;;1999.90;999.90;;;16.80;99.90;;;;;;5072278;28;20209;-42
2021/04/05 03:43:31;;;;;;;1999.90;999.90;;;16.80;99.90;;;;;;5072227;28;20283;-32
2021/04/05 03:46:07;;;;;;;1999.90;999.90;;;16.70;99.90;;;;;;5072271;28;20157;-43
2021/04/05 03:48:39;;;;;;;1999.90;999.90;;;16.70;99.90;;;;;;5072411;28;20243;-32
2021/04/05 03:51:29;;;;;;;1999.90;999.90;;;16.70;99.90;;;;;;5075631;28;20499;-42
2021/04/05 03:54:10;;;;;;;1999.90;999.90;;;16.70;99.90;;;;;;5075786;28;20190;-42
2021/04/05 03:56:41;;;;;;;1999.90;999.90;;;16.70;99.90;;;;;;5075787;28;20203;-42
2021/04/05 03:59:21;;;;;;;1999.90;999.90;;;16.60;99.90;;;;;;5075719;28;20161;-41
2021/04/05 04:01:55;;;;;;;1999.90;999.90;;;16.60;99.90;;;;;;5075629;28;20278;-41
2021/04/05 04:04:28;;;;;;;1999.90;999.90;;;16.50;99.90;;;;;;5075610;28;20157;-41
2021/04/05 04:07:05;;;;;;;1999.90;999.90;;;16.50;99.90;;;;;;5075631;28;20153;-41
2021/04/05 04:09:34;;;;;;;1999.90;999.90;;;16.50;99.90;;;;;;5075519;28;20634;-42
2021/04/05 04:12:02;;;;;;;1999.90;999.90;;;16.50;99.90;;;;;;5075353;28;20255;-43
2021/04/05 04:14:30;;;;;;;1999.90;999.90;;;16.60;99.90;;;;;;5075377;28;20168;-33
2021/04/05 04:16:59;;;;;;;1999.90;999.90;;;16.60;99.90;;;;;;5075408;28;20168;-43
2021/04/05 04:19:27;;;;;;;1999.90;999.90;;;16.60;99.90;;;;;;5075300;28;20237;-43
2021/04/05 04:21:55;;;;;;;1999.90;999.90;;;16.60;99.90;;;;;;5073941;28;20241;-42
2021/04/05 04:24:22;;;;;;;1999.90;999.90;;;16.60;99.90;;;;;;5075176;28;20177;-42
2021/04/05 04:26:49;;;;;;;1999.90;999.90;;;16.60;99.90;;;;;;5073904;28;20253;-42
2021/04/05 04:29:20;;;;;;;1999.90;999.90;;;16.50;99.90;;;;;;5075267;28;20226;-42
2021/04/05 04:31:47;;;;;;;1999.90;999.90;;;16.50;99.90;;;;;;5075244;28;20619;-32
2021/04/05 04:34:19;;;;;;;1999.90;999.90;;;16.30;99.90;;;;;;5075164;28;20160;-43
2021/04/05 04:36:47;;;;;;;1999.90;999.90;;;16.10;99.90;;;;;;5075118;28;20532;-43
2021/04/05 04:39:15;;;;;;;1999.90;999.90;;;16.00;99.90;;;;;;5074959;28;20174;-43
2021/04/05 04:41:45;;;;;;;1999.90;999.90;;;15.90;99.90;;;;;;5074781;28;20204;-41
2021/04/05 04:44:13;;;;;;;1999.90;999.90;;;15.80;99.90;;;;;;5074877;28;20218;-41
2021/04/05 04:46:40;;;;;;;1999.90;999.90;;;15.70;99.90;;;;;;5074859;28;20172;-40
2021/04/05 04:49:10;;;;;;;1999.90;999.90;;;15.60;99.90;;;;;;5074721;28;20264;-43
2021/04/05 04:51:38;;;;;;;1999.90;999.90;;;15.60;99.90;;;;;;5073254;28;20544;-43
2021/04/05 04:54:06;;;;;;;1999.90;999.90;;;15.60;99.90;;;;;;5074722;28;20203;-43
2021/04/05 04:56:34;;;;;;;1999.90;999.90;;;15.60;99.90;;;;;;5074586;28;20247;-33
2021/04/05 04:59:03;;;;;;;1999.90;999.90;;;15.60;99.90;;;;;;5074470;28;20172;-43
2021/04/05 05:01:31;;;;;;;1999.90;999.90;;;15.60;99.90;;;;;;5074328;28;20211;-43
2021/04/05 05:04:02;;;;;;;1999.90;999.90;;;15.60;99.90;;;;;;5074328;28;20230;-43
2021/04/05 05:06:31;;;;;;;1999.90;999.90;;;15.60;99.90;;;;;;5074350;28;20159;-44
2021/04/05 05:08:58;;;;;;;1999.90;999.90;;;15.60;99.90;;;;;;5074208;28;20171;-43
2021/04/05 05:11:27;;;;;;;1999.90;999.90;;;15.60;99.90;;;;;;5074161;28;20175;-42
2021/04/05 05:13:55;;;;;;;1999.90;999.90;;;15.50;99.90;;;;;;5074172;28;20165;-42
2021/04/05 05:16:26;;;;;;;1999.90;999.90;;;15.50;99.90;;;;;;5074183;28;20196;-32
2021/04/05 05:18:58;;;;;;;1999.90;999.90;;;15.60;99.90;;;;;;5074164;28;20159;-32
2021/04/05 05:22:03;;;;;;;1999.90;999.90;;;15.60;99.90;;;;;;5074187;28;20295;-43
2021/04/05 05:24:32;;;;;;;1999.90;999.90;;;15.70;99.90;;;;;;5065210;28;20536;-32
2021/04/05 05:26:59;;;;;;;1999.90;999.90;;;15.80;99.90;;;;;;5074213;28;20179;-42
2021/04/05 05:29:28;;;;;;;1999.90;999.90;;;15.90;99.90;;;;;;5073852;28;20251;-43
2021/04/05 05:31:55;;;;;;;1999.90;999.90;;;15.90;99.90;;;;;;5073818;28;20230;-31
2021/04/05 05:34:23;;;;;;;1999.90;999.90;;;15.90;99.90;;;;;;5073913;28;20164;-34
2021/04/05 05:36:51;;;;;;;1999.90;999.90;;;16.00;99.90;;;;;;5073791;28;20165;-33
2021/04/05 05:39:19;;;;;;;1999.90;999.90;;;16.00;99.90;;;;;;5073609;28;20636;-43
2021/04/05 05:42:19;;;;;;;1999.90;999.90;;;16.10;99.90;;;;;;5073404;28;20228;-42
2021/04/05 05:45:01;;;;;;;1999.90;999.90;;;16.20;99.90;;;;;;5073567;28;20163;-42
2021/04/05 05:47:58;;;;;;;1999.90;999.90;;;16.30;99.90;;;;;;5073512;28;20503;-43
2021/04/05 05:50:50;;;;;;;1999.90;999.90;;;16.40;99.90;;;;;;5073519;28;20251;-42
2021/04/05 05:53:28;;;;;;;1999.90;999.90;;;16.50;99.90;;;;;;5073212;28;20216;-31
2021/04/05 05:56:05;;;;;;;1999.90;999.90;;;16.60;99.90;;;;;;5073405;28;20164;-31
2021/04/05 05:58:55;;;;;;;1999.90;999.90;;;16.70;99.90;;;;;;5073325;28;20160;-31
2021/04/05 06:01:43;;;;;;;1999.90;999.90;;;16.80;99.90;;;;;;5071880;28;20176;-42
2021/04/05 06:04:46;;;;;;;1999.90;999.90;;;16.90;99.90;;;;;;5072898;28;20251;-32
2021/04/05 06:07:38;;;;;;;1999.90;999.90;;;17.00;99.90;;;;;;5072983;28;20222;-42
2021/04/05 06:10:24;;;;;;;1999.90;999.90;;;17.10;99.90;;;;;;5073070;28;20688;-42
2021/04/05 06:13:06;;;;;;;1999.90;999.90;;;17.20;99.90;;;;;;5072370;28;20164;-43
2021/04/05 06:15:56;;;;;;;1999.90;999.90;;;17.40;99.90;;;;;;5072944;28;20176;-42
2021/04/05 06:18:31;;;;;;;1999.90;999.90;;;17.50;99.90;;;;;;5073022;28;20704;-43
2021/04/05 06:21:10;;;;;;;1999.90;999.90;;;17.60;99.90;;;;;;5072967;28;20164;-42
2021/04/05 06:23:49;;;;;;;1999.90;999.90;;;17.80;99.90;;;;;;5072799;28;20186;-43
2021/04/05 06:26:54;;;;;;;1999.90;999.90;;;17.90;99.90;;;;;;5072779;28;20173;-43
2021/04/05 06:29:34;;;;;;;1999.90;999.90;;;18.10;99.80;;;;;;5072815;28;20657;-42
2021/04/05 06:32:20;;;;;;;1999.90;999.90;;;18.30;99.90;;;;;;5072876;28;20152;-43
2021/04/05 06:35:30;;;;;;;1999.90;999.90;;;18.50;99.20;;;;;;5072844;28;20516;-32
2021/04/05 06:38:03;;;;;;;1999.90;999.90;;;18.60;98.80;;;;;;5072500;28;20184;-42
2021/04/05 06:40:35;;;;;;;1999.90;999.90;;;18.70;98.60;;;;;;5072488;28;20156;-43
2021/04/05 06:43:38;;;;;;;1999.90;999.90;;;18.90;98.50;;;;;;5072666;28;20620;-42
2021/04/05 06:46:21;;;;;;;1999.90;999.90;;;19.00;97.90;;;;;;5072713;28;20179;-43
2021/04/05 06:49:06;;;;;;;1999.90;999.90;;;19.10;97.80;;;;;;5072658;28;20181;-41
2021/04/05 06:51:49;;;;;;;1999.90;999.90;;;19.10;97.40;;;;;;5072561;28;20230;-42
2021/04/05 06:54:38;;;;;;;1999.90;999.90;;;19.30;97.30;;;;;;5072542;28;20169;-41
2021/04/05 06:57:23;;;;;;;1999.90;999.90;;;19.50;96.50;;;;;;5072558;28;20615;-42
2021/04/05 07:00:01;;;;;;;1999.90;999.90;;;19.60;96.40;;;;;;5072386;28;20165;-42
2021/04/05 07:02:56;;;;;;;1999.90;999.90;;;19.60;96.00;;;;;;5072404;28;20196;-42
2021/04/05 07:05:45;;;;;;;1999.90;999.90;;;19.70;96.00;;;;;;5072438;28;20160;-42
2021/04/05 07:08:33;;;;;;;1999.90;999.90;;;19.80;95.80;;;;;;5051750;28;20189;-42
2021/04/05 07:11:33;;;;;;;1999.90;999.90;;;19.90;95.70;;;;;;5072515;28;20623;-42
2021/04/05 07:14:18;;;;;;;1999.90;999.90;;;20.00;95.80;;;;;;5072353;28;20661;-41
2021/04/05 07:16:59;;;;;;;1999.90;999.90;;;20.20;94.80;;;;;;5072220;28;20559;-41
2021/04/05 07:19:58;;;;;;;1999.90;999.90;;;20.30;94.60;;;;;;5072558;28;20196;-41
2021/04/05 07:22:38;;;;;;;1999.90;999.90;;;20.30;94.10;;;;;;5062876;28;20215;-42
2021/04/05 07:25:13;;;;;;;1999.90;999.90;;;20.40;94.10;;;;;;5074595;28;20156;-41
2021/04/05 07:28:00;;;;;;;1999.90;999.90;;;20.60;93.90;;;;;;5075902;28;20160;-41
2021/04/05 07:30:51;;;;;;;1999.90;999.90;;;20.70;93.50;;;;;;5076002;28;20153;-42
2021/04/05 07:33:34;;;;;;;1999.90;999.90;;;20.90;93.50;;;;;;5054580;28;20222;-42
2021/04/05 07:36:29;;;;;;;1999.90;999.90;;;21.10;93.10;;;;;;5075855;28;20156;-42
2021/04/05 07:39:02;;;;;;;1999.90;999.90;;;21.30;92.70;;;;;;5075872;28;20172;-44
2021/04/05 07:41:47;;;;;;;1999.90;999.90;;;21.60;92.30;;;;;;5075659;28;20524;-41
2021/04/05 07:44:26;;;;;;;1999.90;999.90;;;21.70;91.80;;;;;;5075821;28;20167;-43
2021/04/05 07:46:57;;;;;;;1999.90;999.90;;;21.90;91.10;;;;;;5075665;28;20156;-33
2021/04/05 07:49:32;;;;;;;1999.90;999.90;;;22.20;90.50;;;;;;5075722;28;20627;-43
2021/04/05 07:52:06;;;;;;;1999.90;999.90;;;22.60;88.30;;;;;;5075290;28;20222;-41
2021/04/05 07:54:35;;;;;;;1999.90;999.90;;;23.00;85.80;;;;;;5075726;28;20515;-33
2021/04/05 07:57:13;;;;;;;1999.90;999.90;;;23.60;83.30;;;;;;5075574;28;20164;-42
2021/04/05 08:00:16;;;;;;;1999.90;999.90;;;23.90;80.80;;;;;;5075598;28;20187;-32
2021/04/05 08:03:05;;;;;;;1999.90;999.90;;;24.30;79.00;;;;;;5075334;28;20196;-32
2021/04/05 08:06:07;;;;;;;1999.90;999.90;;;24.30;77.60;;;;;;5075541;28;20153;-32
2021/04/05 08:08:52;;;;;;;1999.90;999.90;;;24.10;77.80;;;;;;5075444;28;20492;-41
2021/04/05 08:11:56;;;;;;;1999.90;999.90;;;24.30;77.50;;;;;;5075149;28;20176;-42
2021/04/05 08:14:32;;;;;;;1999.90;999.90;;;25.00;75.30;;;;;;5075022;28;20179;-42
2021/04/05 08:16:59;;;;;;;1999.90;999.90;;;25.50;71.80;;;;;;5074998;28;20187;-43
2021/04/05 08:19:45;;;;;;;1999.90;999.90;;;25.50;72.10;;;;;;5074881;28;20176;-43
2021/04/05 08:22:31;;;;;;;1999.90;999.90;;;26.30;69.10;;;;;;5074758;28;20195;-33
2021/04/05 08:26:12;;;;;;;1999.90;999.90;;;27.30;65.40;;;;;;5074860;28;21015;-44
2021/04/05 08:28:49;;;;;;;1999.90;999.90;;;27.10;63.30;;;;;;5069099;28;20169;-44
2021/04/05 08:31:26;;;;;;;1999.90;999.90;;;27.50;62.70;;;;;;5072506;28;20662;-43
2021/04/05 08:34:23;;;;;;;1999.90;999.90;;;27.70;61.50;;;;;;5074809;28;20216;-33
2021/04/05 08:37:02;;;;;;;1999.90;999.90;;;26.70;64.30;;;;;;5074756;28;20252;-33
2021/04/05 08:39:49;;;;;;;1999.90;999.90;;;27.00;64.80;;;;;;5074738;28;20691;-42
2021/04/05 08:42:46;;;;;;;1999.90;999.90;;;27.60;63.10;;;;;;5074701;28;20197;-39
2021/04/05 08:45:20;;;;;;;1999.90;999.90;;;27.80;60.40;;;;;;5074605;28;20157;-43
2021/04/05 08:48:09;;;;;;;1999.90;999.90;;;28.20;60.30;;;;;;5074469;28;20172;-33
2021/04/05 08:50:40;;;;;;;1999.90;999.90;;;29.00;55.80;;;;;;5074657;28;20160;-32
2021/04/05 08:53:10;;;;;;;1999.90;999.90;;;29.70;54.00;;;;;;5074396;28;20303;-41
2021/04/05 08:55:40;;;;;;;1999.90;999.90;;;29.50;52.70;;;;;;5074548;28;20708;-45
2021/04/05 08:58:34;;;;;;;1999.90;999.90;;;28.90;53.70;;;;;;5074482;28;20167;-40
2021/04/05 09:01:05;;;;;;;1999.90;999.90;;;29.00;53.80;;;;;;5074329;28;20164;-55
2021/04/05 09:03:35;;;;;;;1999.90;999.90;;;28.90;53.70;;;;;;5074371;28;20316;-32
2021/04/05 09:06:08;;;;;;;1999.90;999.90;;;29.40;53.50;;;;;;5074150;28;20160;-55
2021/04/05 09:08:35;;;;;;;1999.90;999.90;;;29.10;52.60;;;;;;5074183;28;20156;-53
2021/04/05 09:11:04;;;;;;;1999.90;999.90;;;28.90;54.00;;;;;;5073989;28;20679;-52
2021/04/05 09:14:08;;;;;;;1999.90;999.90;;;29.50;52.80;;;;;;5074011;28;20168;-52
2021/04/05 09:17:01;;;;;;;1999.90;999.90;;;27.80;55.40;;;;;;5031958;28;20174;-32
2021/04/05 09:20:06;;;;;;;1999.90;999.90;;;27.70;56.30;;;;;;5073518;28;20207;-41
2021/04/05 09:22:48;;;;;;;1999.90;999.90;;;27.70;56.60;;;;;;5066286;28;20330;-39
2021/04/05 09:25:49;;;;;;;1999.90;999.90;;;27.70;56.20;;;;;;5073868;28;20153;-34
2021/04/05 09:28:46;;;;;;;1999.90;999.90;;;27.80;55.90;;;;;;5068295;28;20665;-39
2021/04/05 09:31:40;;;;;;;1999.90;999.90;;;27.70;56.40;;;;;;5073773;28;20180;-34
2021/04/05 09:34:57;;;;;;;1999.90;999.90;;;27.50;56.50;;;;;;5073438;28;20165;-33
2021/04/05 09:37:43;;;;;;;1999.90;999.90;;;27.10;57.20;;;;;;5073515;28;20161;-37
2021/04/05 09:40:28;;;;;;;1999.90;999.90;;;27.30;57.30;;;;;;5073841;28;20168;-34
2021/04/05 09:43:11;;;;;;;1999.90;999.90;;;27.80;56.20;;;;;;5073489;28;20216;-37
2021/04/05 09:45:49;;;;;;;1999.90;999.90;;;28.80;53.90;;;;;;5073469;28;20157;-32
2021/04/05 09:48:41;;;;;;;1999.90;999.90;;;28.60;53.30;;;;;;5072654;28;20633;-32
2021/04/05 09:51:32;;;;;;;1999.90;999.90;;;29.00;53.10;;;;;;5073196;28;20252;-32
2021/04/05 09:54:23;;;;;;;1999.90;999.90;;;28.80;52.20;;;;;;5073394;28;20168;-34
2021/04/05 09:57:10;;;;;;;1999.90;999.90;;;29.00;52.70;;;;;;5073237;28;20198;-32
2021/04/05 09:59:44;;;;;;;1999.90;999.90;;;28.90;52.70;;;;;;5073170;28;20184;-33
2021/04/05 10:02:14;;;;;;;1999.90;999.90;;;28.20;54.00;;;;;;5073153;28;20238;-42
2021/04/05 10:04:45;;;;;;;1999.90;999.90;;;28.80;53.50;;;;;;5071786;28;20169;-32
2021/04/05 10:07:13;;;;;;;1999.90;999.90;;;29.60;51.30;;;;;;5073288;28;20247;-31
2021/04/05 10:09:42;;;;;;;1999.90;999.90;;;29.50;50.90;;;;;;5072873;28;20217;-32
2021/04/05 10:12:10;;;;;;;1999.90;999.90;;;29.40;51.00;;;;;;5072888;28;20157;-32
2021/04/05 10:14:42;;;;;;;1999.90;999.90;;;29.80;50.40;;;;;;5072815;28;20230;-33
2021/04/05 10:17:10;;;;;;;1999.90;999.90;;;30.00;49.70;;;;;;5072703;28;20164;-32
2021/04/05 10:19:41;;;;;;;1999.90;999.90;;;30.30;49.10;;;;;;5072738;28;20245;-32
2021/04/05 10:22:20;;;;;;;1999.90;999.90;;;30.30;48.20;;;;;;5072996;28;20307;-32
2021/04/05 10:24:49;;;;;;;1999.90;999.90;;;30.80;47.80;;;;;;5072701;28;20173;-40
2021/04/05 10:27:20;;;;;;;1999.90;999.90;;;30.10;48.60;;;;;;5072762;28;20171;-32
2021/04/05 10:29:51;;;;;;;1999.90;999.90;;;29.50;50.20;;;;;;5072707;28;20189;-42
2021/04/05 10:32:26;;;;;;;1999.90;999.90;;;29.90;49.50;;;;;;5072614;28;20561;-33
2021/04/05 10:34:58;;;;;;;1999.90;999.90;;;29.70;49.30;;;;;;5071356;28;20164;-32
2021/04/05 10:37:34;;;;;;;1999.90;999.90;;;29.70;49.40;;;;;;5072376;28;20157;-32
2021/04/05 10:40:02;;;;;;;1999.90;999.90;;;30.00;49.50;;;;;;5072488;28;20183;-32
2021/04/05 10:42:39;;;;;;;1999.90;999.90;;;29.90;48.80;;;;;;5072344;28;20254;-32
2021/04/05 10:45:34;;;;;;;1999.90;999.90;;;30.10;48.60;;;;;;5072531;28;20522;-50
2021/04/05 10:48:22;;;;;;;1999.90;999.90;;;30.10;48.60;;;;;;5069853;28;20183;-41
2021/04/05 10:51:10;;;;;;;1999.90;999.90;;;30.50;47.90;;;;;;5072520;28;20176;-32
2021/04/05 10:53:42;;;;;;;1999.90;999.90;;;30.80;46.90;;;;;;5072344;28;20180;-33
2021/04/05 10:56:11;;;;;;;1999.90;999.90;;;30.90;47.10;;;;;;5072531;28;20223;-32
2021/04/05 10:58:52;;;;;;;1999.90;999.90;;;29.90;47.40;;;;;;5074381;28;20164;-44
2021/04/05 11:01:20;;;;;;;1999.90;999.90;;;30.00;48.80;;;;;;5076886;28;20634;-32
2021/04/05 11:03:52;;;;;;;1999.90;999.90;;;30.30;48.10;;;;;;5076618;28;20259;-42
2021/04/05 11:06:22;;;;;;;1999.90;999.90;;;30.30;47.90;;;;;;5076486;28;20200;-32
2021/04/05 11:08:54;;;;;;;1999.90;999.90;;;30.40;47.90;;;;;;5076429;28;20149;-32
2021/04/05 11:11:27;;;;;;;1999.90;999.90;;;30.30;47.90;;;;;;5076782;28;20234;-31
2021/04/05 11:14:02;;;;;;;1999.90;999.90;;;30.20;48.90;;;;;;5076418;28;20183;-32
2021/04/05 11:16:30;;;;;;;1999.90;999.90;;;30.00;48.50;;;;;;5076268;28;20175;-42
2021/04/05 11:19:01;;;;;;;1999.90;999.90;;;29.70;48.90;;;;;;5076148;28;20168;-44
2021/04/05 11:21:43;;;;;;;1999.90;999.90;;;29.40;50.20;;;;;;5075917;28;20172;-42
2021/04/05 11:24:12;;;;;;;1999.90;999.90;;;29.30;50.70;;;;;;5076118;28;20175;-40
2021/04/05 11:26:42;;;;;;;1999.90;999.90;;;28.90;51.10;;;;;;5074755;28;20226;-36
2021/04/05 11:29:13;;;;;;;1999.90;999.90;;;28.60;52.20;;;;;;5076097;28;20169;-44
2021/04/05 11:31:45;;;;;;;1999.90;999.90;;;28.50;52.90;;;;;;5076004;28;20161;-32
2021/04/05 11:34:15;;;;;;;1999.90;999.90;;;28.70;52.20;;;;;;5075972;28;20606;-32
2021/04/05 11:36:50;;;;;;;1999.90;999.90;;;28.70;52.40;;;;;;5075874;28;20168;-36
2021/04/05 11:39:19;;;;;;;1999.90;999.90;;;28.80;51.70;;;;;;5074651;28;20161;-41
2021/04/05 11:41:52;;;;;;;1999.90;999.90;;;28.50;52.00;;;;;;5075666;28;20192;-32
2021/04/05 11:44:26;;;;;;;1999.90;999.90;;;28.50;52.60;;;;;;5075768;28;20548;-33
2021/04/05 11:46:56;;;;;;;1999.90;999.90;;;28.50;52.60;;;;;;5075982;28;20144;-32
2021/04/05 11:49:30;;;;;;;1999.90;999.90;;;28.30;52.50;;;;;;5075946;28;20692;-33
2021/04/05 11:52:16;;;;;;;1999.90;999.90;;;28.30;53.00;;;;;;5075700;28;20756;-34
2021/04/05 11:54:51;;;;;;;1999.90;999.90;;;28.20;52.70;;;;;;5075739;28;20160;-41
2021/04/05 11:57:39;;;;;;;1999.90;999.90;;;28.10;53.60;;;;;;5075632;28;20164;-34
2021/04/05 12:00:11;;;;;;;1999.90;999.90;;;28.10;52.90;;;;;;5075568;28;20529;-57
2021/04/05 12:02:47;;;;;;;1999.90;999.90;;;28.20;53.30;;;;;;5075636;28;20231;-33
2021/04/05 12:05:26;;;;;;;1999.90;999.90;;;28.50;52.70;;;;;;5075627;28;20176;-32
2021/04/05 12:08:14;;;;;;;1999.90;999.90;;;28.60;52.20;;;;;;5075648;28;20184;-38
2021/04/05 12:10:44;;;;;;;1999.90;999.90;;;28.50;52.10;;;;;;5074578;28;20178;-31
2021/04/05 12:13:22;;;;;;;1999.90;999.90;;;28.50;52.60;;;;;;5075640;28;20206;-40
2021/04/05 12:15:57;;;;;;;1999.90;999.90;;;28.40;53.00;;;;;;5075395;28;20167;-48
2021/04/05 12:18:25;;;;;;;1999.90;999.90;;;28.50;52.60;;;;;;5075608;28;20157;-32
2021/04/05 12:21:13;;;;;;;1999.90;999.90;;;28.70;51.50;;;;;;5075305;28;20173;-34
2021/04/05 12:23:41;;;;;;;1999.90;999.90;;;28.80;51.30;;;;;;5075182;28;20227;-42
2021/04/05 12:26:10;;;;;;;1999.90;999.90;;;28.50;52.30;;;;;;5075078;28;20217;-39
2021/04/05 12:28:38;;;;;;;1999.90;999.90;;;28.50;52.50;;;;;;5074964;28;20631;-31
2021/04/05 12:31:10;;;;;;;1999.90;999.90;;;28.30;52.70;;;;;;5074905;28;20211;-43
2021/04/05 12:33:38;;;;;;;1999.90;999.90;;;28.10;53.10;;;;;;5074921;28;20153;-36
2021/04/05 12:36:06;;;;;;;1999.90;999.90;;;28.10;53.10;;;;;;5074920;28;20623;-35
2021/04/05 12:38:36;;;;;;;1999.90;999.90;;;28.10;52.90;;;;;;5074865;28;20173;-33
2021/04/05 12:41:05;;;;;;;1999.90;999.90;;;28.10;52.80;;;;;;5074782;28;20160;-43